createdAt,value
2022-08-05T00:00:19.048Z,18.60
2022-08-05T00:02:51.655Z,18.60
2022-08-05T00:06:02.764Z,18.60
2022-08-05T00:08:34.555Z,18.60
2022-08-05T00:10:56.840Z,18.60
2022-08-05T00:13:38.715Z,18.60
2022-08-05T00:16:10.996Z,18.60
2022-08-05T00:18:44.183Z,18.50
2022-08-05T00:21:12.322Z,18.40
2022-08-05T00:23:45.781Z,18.40
2022-08-05T00:26:20.762Z,18.40
2022-08-05T00:28:49.494Z,18.40
2022-08-05T00:31:16.485Z,18.30
2022-08-05T00:34:53.693Z,18.30
2022-08-05T00:37:11.306Z,18.30
2022-08-05T00:39:41.609Z,18.30
2022-08-05T00:42:36.570Z,18.30
2022-08-05T00:45:08.444Z,18.20
2022-08-05T00:47:53.220Z,18.30
2022-08-05T00:50:25.410Z,18.30
2022-08-05T00:52:55.002Z,18.30
2022-08-05T00:55:22.660Z,18.30
2022-08-05T00:57:58.147Z,18.30
2022-08-05T01:00:30.246Z,18.20
2022-08-05T01:02:59.909Z,18.20
2022-08-05T01:05:27.854Z,18.20
2022-08-05T01:08:41.291Z,18.30
2022-08-05T01:10:51.669Z,18.30
2022-08-05T01:13:59.142Z,18.20
2022-08-05T01:16:30.395Z,18.10
2022-08-05T01:19:06.519Z,18.10
2022-08-05T01:21:50.775Z,18.10
2022-08-05T01:24:44.154Z,18.20
2022-08-05T01:27:22.161Z,18.20
2022-08-05T01:29:52.898Z,18.20
2022-08-05T01:32:27.725Z,18.20
2022-08-05T01:34:59.365Z,18.10
2022-08-05T01:37:46.048Z,18.20
2022-08-05T01:40:17.986Z,18.10
2022-08-05T01:42:46.839Z,18.00
2022-08-05T01:45:16.616Z,18.00
2022-08-05T01:47:45.978Z,17.90
2022-08-05T01:50:28.878Z,17.90
2022-08-05T01:53:04.465Z,17.90
2022-08-05T01:55:36.059Z,17.80
2022-08-05T01:58:09.773Z,17.90
2022-08-05T02:00:45.571Z,17.80
2022-08-05T02:03:24.543Z,17.90
2022-08-05T02:06:03.327Z,17.90
2022-08-05T02:08:31.633Z,17.90
2022-08-05T02:11:33.169Z,17.80
2022-08-05T02:14:16.991Z,17.70
2022-08-05T02:16:52.979Z,17.70
2022-08-05T02:19:33.493Z,17.50
2022-08-05T02:22:25.843Z,17.50
2022-08-05T02:25:03.432Z,17.50
2022-08-05T02:27:58.532Z,17.60
2022-08-05T02:30:20.211Z,17.60
2022-08-05T02:32:51.444Z,17.50
2022-08-05T02:35:32.997Z,17.50
2022-08-05T02:38:05.328Z,17.40
2022-08-05T02:40:41.039Z,17.50
2022-08-05T02:43:09.394Z,17.50
2022-08-05T02:45:51.380Z,17.50
2022-08-05T02:48:21.424Z,17.50
2022-08-05T02:51:00.080Z,17.50
2022-08-05T02:53:39.755Z,17.60
2022-08-05T02:56:16.098Z,17.50
2022-08-05T02:58:51.121Z,17.50
2022-08-05T03:01:23.570Z,17.40
2022-08-05T03:04:02.764Z,17.40
2022-08-05T03:06:56.095Z,17.40
2022-08-05T03:09:36.121Z,17.30
2022-08-05T03:12:05.659Z,17.20
2022-08-05T03:14:32.609Z,17.20
2022-08-05T03:17:00.791Z,17.20
2022-08-05T03:19:33.184Z,17.20
2022-08-05T03:22:03.248Z,17.20
2022-08-05T03:24:33.711Z,17.20
2022-08-05T03:27:02.179Z,17.20
2022-08-05T03:29:44.501Z,17.20
2022-08-05T03:32:14.234Z,17.20
2022-08-05T03:34:42.668Z,17.20
2022-08-05T03:37:18.843Z,17.20
2022-08-05T03:39:58.824Z,17.10
2022-08-05T03:42:27.190Z,17.10
2022-08-05T03:44:56.129Z,17.10
2022-08-05T03:47:24.342Z,17.10
2022-08-05T03:49:52.461Z,17.10
2022-08-05T03:52:36.556Z,17.10
2022-08-05T03:56:04.183Z,17.10
2022-08-05T03:58:17.862Z,17.10
2022-08-05T04:00:46.473Z,17.10
2022-08-05T04:03:28.348Z,17.20
2022-08-05T04:05:58.063Z,17.20
2022-08-05T04:08:36.584Z,17.20
2022-08-05T04:11:08.596Z,17.20
2022-08-05T04:13:50.137Z,17.20
2022-08-05T04:16:25.133Z,17.30
2022-08-05T04:18:57.923Z,17.30
2022-08-05T04:22:08.895Z,17.40
2022-08-05T04:24:18.900Z,17.40
2022-08-05T04:26:49.365Z,17.50
2022-08-05T04:29:16.259Z,17.60
2022-08-05T04:31:43.174Z,17.70
2022-08-05T04:34:31.917Z,17.70
2022-08-05T04:36:57.215Z,17.70
2022-08-05T04:39:24.532Z,17.80
2022-08-05T04:41:54.674Z,18.00
2022-08-05T04:44:29.294Z,18.10
2022-08-05T04:46:59.054Z,18.20
2022-08-05T04:49:39.105Z,18.20
2022-08-05T04:52:14.059Z,18.30
2022-08-05T04:54:42.349Z,18.40
2022-08-05T04:57:09.285Z,18.40
2022-08-05T04:59:38.327Z,18.50
2022-08-05T05:02:41.477Z,18.60
2022-08-05T05:05:02.210Z,18.70
2022-08-05T05:07:32.499Z,18.70
2022-08-05T05:10:02.294Z,18.80
2022-08-05T05:12:30.072Z,18.90
2022-08-05T05:14:56.930Z,19.10
2022-08-05T05:17:55.969Z,19.20
2022-08-05T05:20:12.697Z,19.30
2022-08-05T05:22:41.016Z,19.50
2022-08-05T05:25:16.738Z,19.60
2022-08-05T05:27:53.547Z,19.70
2022-08-05T05:30:29.292Z,19.90
2022-08-05T05:33:00.438Z,20.00
2022-08-05T05:35:39.774Z,20.10
2022-08-05T05:38:13.146Z,20.30
2022-08-05T05:40:48.075Z,20.40
2022-08-05T05:43:27.646Z,20.50
2022-08-05T05:46:12.149Z,20.70
2022-08-05T05:48:41.920Z,20.80
2022-08-05T05:51:15.767Z,20.90
2022-08-05T05:53:45.902Z,21.10
2022-08-05T05:56:26.150Z,21.20
2022-08-05T05:59:06.502Z,21.30
2022-08-05T06:01:40.129Z,21.40
2022-08-05T06:04:12.901Z,21.60
2022-08-05T06:06:47.688Z,21.70
2022-08-05T06:09:17.593Z,21.80
2022-08-05T06:12:01.368Z,21.90
2022-08-05T06:14:34.631Z,22.00
2022-08-05T06:17:22.129Z,22.10
2022-08-05T06:19:56.330Z,22.20
2022-08-05T06:22:34.718Z,22.30
2022-08-05T06:25:24.947Z,22.40
2022-08-05T06:28:08.956Z,22.50
2022-08-05T06:30:37.037Z,22.60
2022-08-05T06:33:04.093Z,22.70
2022-08-05T06:36:07.665Z,22.80
2022-08-05T06:38:18.099Z,22.90
2022-08-05T06:41:03.598Z,23.00
2022-08-05T06:43:51.615Z,23.20
2022-08-05T06:46:18.527Z,23.30
2022-08-05T06:48:55.543Z,23.30
2022-08-05T06:51:30.100Z,23.40
2022-08-05T06:54:02.639Z,23.50
2022-08-05T06:56:33.374Z,23.60
2022-08-05T06:59:08.398Z,23.70
2022-08-05T07:01:36.709Z,23.80
2022-08-05T07:04:03.924Z,23.90
2022-08-05T07:06:31.771Z,23.90
2022-08-05T07:08:59.719Z,24.10
2022-08-05T07:11:32.075Z,24.10
2022-08-05T07:14:29.360Z,24.30
2022-08-05T07:18:01.973Z,24.40
2022-08-05T07:22:35.861Z,24.70
2022-08-05T07:25:23.720Z,24.80
2022-08-05T07:27:57.305Z,24.90
2022-08-05T07:30:34.205Z,25.00
2022-08-05T07:33:09.474Z,25.20
2022-08-05T07:36:01.559Z,25.30
2022-08-05T07:38:34.055Z,25.30
2022-08-05T07:42:06.975Z,25.50
2022-08-05T07:43:59.062Z,25.60
2022-08-05T07:46:27.497Z,25.70
2022-08-05T07:49:02.363Z,25.80
2022-08-05T07:51:37.399Z,25.90
2022-08-05T07:54:10.159Z,26.10
2022-08-05T07:57:02.785Z,26.20
2022-08-05T07:59:39.057Z,26.30
2022-08-05T08:02:15.656Z,26.40
2022-08-05T08:04:48.313Z,26.50
2022-08-05T08:07:22.212Z,26.60
2022-08-05T08:09:52.376Z,26.70
2022-08-05T08:12:36.960Z,26.70
2022-08-05T08:15:13.823Z,27.00
2022-08-05T08:17:45.981Z,27.10
2022-08-05T08:20:43.615Z,27.20
2022-08-05T08:23:01.821Z,27.40
2022-08-05T08:26:00.596Z,27.40
2022-08-05T08:28:36.696Z,27.50
2022-08-05T08:31:06.698Z,27.60
2022-08-05T08:33:37.713Z,27.60
2022-08-05T08:36:38.104Z,27.70
2022-08-05T08:38:55.922Z,27.90
2022-08-05T08:41:51.288Z,27.90
2022-08-05T08:45:18.519Z,28.10
2022-08-05T08:47:47.333Z,28.10
2022-08-05T08:50:22.826Z,28.20
2022-08-05T08:52:51.652Z,28.20
2022-08-05T08:56:02.540Z,28.40
2022-08-05T08:58:10.211Z,28.50
2022-08-05T09:00:41.436Z,28.50
2022-08-05T09:03:09.861Z,28.60
2022-08-05T09:05:38.782Z,28.70
2022-08-05T09:08:27.404Z,28.80
2022-08-05T09:10:59.329Z,29.00
2022-08-05T09:13:31.488Z,29.10
2022-08-05T09:15:59.841Z,29.20
2022-08-05T09:18:27.623Z,29.30
2022-08-05T09:20:57.156Z,29.30
2022-08-05T09:23:28.853Z,29.30
2022-08-05T09:26:10.282Z,29.40
2022-08-05T09:28:43.194Z,29.50
2022-08-05T09:31:22.570Z,29.60
2022-08-05T09:34:07.556Z,29.60
2022-08-05T09:36:56.001Z,29.80
2022-08-05T09:39:39.465Z,29.80
2022-08-05T09:42:17.339Z,29.90
2022-08-05T09:44:52.378Z,30.10
2022-08-05T09:47:25.545Z,30.10
2022-08-05T09:50:01.057Z,30.10
2022-08-05T09:52:34.671Z,30.20
2022-08-05T09:55:55.584Z,30.30
2022-08-05T09:57:54.776Z,30.40
2022-08-05T10:00:26.852Z,30.40
2022-08-05T10:02:58.670Z,30.40
2022-08-05T10:05:28.120Z,30.50
2022-08-05T10:08:35.947Z,30.60
2022-08-05T10:10:50.331Z,30.60
2022-08-05T10:13:48.125Z,30.70
2022-08-05T10:16:41.622Z,30.70
2022-08-05T10:19:23.585Z,30.80
2022-08-05T10:21:59.094Z,30.90
2022-08-05T10:24:26.998Z,31.00
2022-08-05T10:27:00.642Z,31.10
2022-08-05T10:30:06.986Z,31.00
2022-08-05T10:32:52.514Z,31.10
2022-08-05T10:35:04.782Z,31.20
2022-08-05T10:37:40.123Z,31.20
2022-08-05T10:40:35.130Z,31.20
2022-08-05T10:43:36.353Z,31.30
2022-08-05T10:46:07.120Z,31.20
2022-08-05T10:48:57.181Z,31.30
2022-08-05T10:51:28.507Z,31.40
2022-08-05T10:53:56.290Z,31.50
2022-08-05T10:56:30.791Z,31.60
2022-08-05T10:59:12.229Z,31.70
2022-08-05T11:01:54.021Z,31.80
2022-08-05T11:04:26.375Z,31.80
2022-08-05T11:07:04.586Z,31.90
2022-08-05T11:09:46.752Z,32.00
2022-08-05T11:12:55.107Z,32.20
2022-08-05T11:16:00.499Z,32.20
2022-08-05T11:18:24.425Z,32.10
2022-08-05T11:20:53.057Z,32.30
2022-08-05T11:24:02.605Z,32.40
2022-08-05T11:26:32.355Z,32.50
2022-08-05T11:29:12.006Z,32.60
2022-08-05T11:31:57.114Z,32.60
2022-08-05T11:34:47.503Z,32.50
2022-08-05T11:38:29.638Z,32.60
2022-08-05T11:41:34.735Z,32.60
2022-08-05T11:44:04.725Z,32.70
2022-08-05T11:47:09.925Z,32.50
2022-08-05T11:49:25.146Z,32.60
2022-08-05T11:51:57.707Z,32.70
2022-08-05T11:54:34.370Z,32.80
2022-08-05T11:57:07.583Z,32.80
2022-08-05T11:59:49.564Z,32.90
2022-08-05T12:02:29.673Z,33.00
2022-08-05T12:05:00.002Z,33.10
2022-08-05T12:08:08.180Z,33.10
2022-08-05T12:10:24.892Z,33.10
2022-08-05T12:13:15.817Z,33.30
2022-08-05T12:15:49.829Z,33.30
2022-08-05T12:18:33.756Z,33.20
2022-08-05T12:21:15.343Z,33.20
2022-08-05T12:24:08.643Z,33.30
2022-08-05T12:26:53.138Z,33.30
2022-08-05T12:29:27.029Z,33.40
2022-08-05T12:31:55.462Z,33.50
2022-08-05T12:34:28.865Z,33.40
2022-08-05T12:36:58.782Z,33.60
2022-08-05T12:39:34.552Z,33.80
2022-08-05T12:42:17.234Z,33.90
2022-08-05T12:44:45.030Z,34.00
2022-08-05T12:47:17.134Z,34.20
2022-08-05T12:50:04.464Z,34.40
2022-08-05T12:52:38.740Z,34.50
2022-08-05T12:55:26.408Z,34.50
2022-08-05T12:58:52.495Z,34.70
2022-08-05T13:02:03.859Z,34.70
2022-08-05T13:03:39.036Z,34.70
2022-08-05T13:06:16.108Z,34.80
2022-08-05T13:08:49.097Z,34.90
2022-08-05T13:12:02.352Z,34.70
2022-08-05T13:14:11.133Z,34.80
2022-08-05T13:16:49.496Z,34.80
2022-08-05T13:19:16.415Z,34.60
2022-08-05T13:21:48.176Z,34.70
2022-08-05T13:24:36.322Z,34.60
2022-08-05T13:27:11.121Z,34.50
2022-08-05T13:29:59.498Z,34.40
2022-08-05T13:32:33.980Z,34.10
2022-08-05T13:35:03.347Z,33.60
2022-08-05T13:37:34.960Z,33.10
2022-08-05T13:40:16.811Z,32.60
2022-08-05T13:42:47.360Z,32.30
2022-08-05T13:45:22.399Z,32.10
2022-08-05T13:48:09.129Z,32.00
2022-08-05T13:50:44.673Z,32.20
2022-08-05T13:53:15.801Z,32.50
2022-08-05T13:55:50.099Z,32.90
2022-08-05T13:58:30.918Z,33.30
2022-08-05T14:00:58.747Z,33.70
2022-08-05T14:03:30.324Z,34.10
2022-08-05T14:06:25.986Z,34.40
2022-08-05T14:08:46.666Z,34.80
2022-08-05T14:11:21.006Z,34.90
2022-08-05T14:13:49.036Z,34.90
2022-08-05T14:16:22.330Z,35.00
2022-08-05T14:18:49.509Z,35.10
2022-08-05T14:22:07.505Z,35.20
2022-08-05T14:24:04.346Z,35.30
2022-08-05T14:26:37.054Z,35.40
2022-08-05T14:29:16.050Z,35.40
2022-08-05T14:32:03.109Z,35.00
2022-08-05T14:34:35.210Z,34.50
2022-08-05T14:37:04.095Z,33.90
2022-08-05T14:39:49.311Z,33.40
2022-08-05T14:42:20.806Z,33.10
2022-08-05T14:44:49.187Z,32.80
2022-08-05T14:47:16.351Z,32.50
2022-08-05T14:50:17.353Z,32.20
2022-08-05T14:52:53.063Z,31.90
2022-08-05T14:55:24.495Z,31.60
2022-08-05T14:57:54.650Z,31.50
2022-08-05T15:00:28.057Z,31.30
2022-08-05T15:02:55.423Z,31.20
2022-08-05T15:05:22.514Z,31.10
2022-08-05T15:08:08.873Z,31.00
2022-08-05T15:10:43.507Z,30.80
2022-08-05T15:13:13.401Z,30.70
2022-08-05T15:15:54.885Z,30.50
2022-08-05T15:18:23.377Z,30.30
2022-08-05T15:20:50.999Z,30.10
2022-08-05T15:23:18.176Z,29.90
2022-08-05T15:25:53.298Z,29.70
2022-08-05T15:28:27.381Z,29.60
2022-08-05T15:30:55.318Z,29.50
2022-08-05T15:34:04.969Z,29.40
2022-08-05T15:36:17.720Z,29.30
2022-08-05T15:41:00.570Z,29.20
2022-08-05T15:41:58.121Z,29.10
2022-08-05T15:44:28.025Z,29.00
2022-08-05T15:46:58.110Z,28.80
2022-08-05T15:49:48.048Z,28.70
2022-08-05T15:52:16.269Z,28.60
2022-08-05T15:54:44.181Z,28.50
2022-08-05T15:57:11.487Z,28.40
2022-08-05T15:59:40.589Z,28.30
2022-08-05T16:02:09.444Z,28.10
2022-08-05T16:04:41.399Z,28.00
2022-08-05T16:07:10.647Z,27.90
2022-08-05T16:09:38.075Z,27.80
2022-08-05T16:12:09.485Z,27.70
2022-08-05T16:14:38.421Z,27.60
2022-08-05T16:17:05.450Z,27.50
2022-08-05T16:20:04.390Z,27.50
2022-08-05T16:22:27.313Z,27.40
2022-08-05T16:24:54.766Z,27.40
2022-08-05T16:27:32.246Z,27.40
2022-08-05T16:30:23.120Z,27.30
2022-08-05T16:32:52.872Z,27.30
2022-08-05T16:35:19.789Z,27.30
2022-08-05T16:38:01.942Z,27.20
2022-08-05T16:40:36.945Z,27.00
2022-08-05T16:43:04.575Z,26.90
2022-08-05T16:46:05.296Z,26.80
2022-08-05T16:48:25.856Z,26.80
2022-08-05T16:51:00.591Z,26.70
2022-08-05T16:53:32.189Z,26.70
2022-08-05T16:56:14.563Z,26.60
2022-08-05T16:58:41.439Z,26.60
2022-08-05T17:01:10.423Z,26.60
2022-08-05T17:03:37.804Z,26.60
2022-08-05T17:06:06.307Z,26.50
2022-08-05T17:08:52.340Z,26.40
2022-08-05T17:11:23.876Z,26.40
2022-08-05T17:14:00.356Z,26.30
2022-08-05T17:16:36.505Z,26.30
2022-08-05T17:19:07.043Z,26.30
2022-08-05T17:21:36.193Z,26.30
2022-08-05T17:24:18.675Z,26.30
2022-08-05T17:26:56.946Z,26.30
2022-08-05T17:29:33.698Z,26.20
2022-08-05T17:32:08.629Z,26.20
2022-08-05T17:34:39.645Z,26.10
2022-08-05T17:37:32.124Z,26.00
2022-08-05T17:39:55.834Z,25.90
2022-08-05T17:42:28.612Z,25.90
2022-08-05T17:44:57.227Z,25.80
2022-08-05T17:47:24.231Z,25.80
2022-08-05T17:50:00.475Z,25.70
2022-08-05T17:52:32.166Z,25.60
2022-08-05T17:54:59.437Z,25.50
2022-08-05T17:57:27.780Z,25.50
2022-08-05T18:00:03.538Z,25.50
2022-08-05T18:02:33.433Z,25.40
2022-08-05T18:05:06.299Z,25.40
2022-08-05T18:07:41.513Z,25.40
2022-08-05T18:10:14.052Z,25.40
2022-08-05T18:12:48.248Z,25.40
2022-08-05T18:15:15.305Z,25.30
2022-08-05T18:17:59.677Z,25.20
2022-08-05T18:20:31.842Z,25.10
2022-08-05T18:23:08.869Z,25.10
2022-08-05T18:25:39.143Z,25.00
2022-08-05T18:28:07.526Z,25.00
2022-08-05T18:30:39.112Z,25.00
2022-08-05T18:33:08.552Z,25.10
2022-08-05T18:36:00.877Z,25.00
2022-08-05T18:38:30.808Z,25.10
2022-08-05T18:41:55.541Z,25.10
2022-08-05T18:43:48.716Z,24.90
2022-08-05T18:46:19.822Z,24.90
2022-08-05T18:48:52.108Z,24.90
2022-08-05T18:52:05.108Z,24.80
2022-08-05T18:54:31.254Z,24.70
2022-08-05T18:57:01.103Z,24.70
2022-08-05T18:59:43.522Z,24.70
2022-08-05T19:02:28.021Z,24.70
2022-08-05T19:05:02.355Z,24.70
2022-08-05T19:07:50.091Z,24.70
2022-08-05T19:10:27.947Z,24.50
2022-08-05T19:12:56.649Z,24.40
2022-08-05T19:15:56.948Z,24.40
2022-08-05T19:18:13.530Z,24.40
2022-08-05T19:20:48.931Z,24.50
2022-08-05T19:24:05.806Z,24.60
2022-08-05T19:26:03.474Z,24.70
2022-08-05T19:28:34.994Z,24.70
2022-08-05T19:31:05.761Z,24.70
2022-08-05T19:33:36.837Z,24.80
2022-08-05T19:36:08.853Z,24.80
2022-08-05T19:38:36.711Z,24.80
2022-08-05T19:41:07.373Z,24.80
2022-08-05T19:44:05.375Z,24.80
2022-08-05T19:46:29.523Z,24.70
2022-08-05T19:49:03.131Z,24.70
2022-08-05T19:52:08.758Z,24.70
2022-08-05T19:54:25.429Z,24.70
2022-08-05T19:56:55.649Z,24.60
2022-08-05T19:59:56.657Z,24.50
2022-08-05T20:02:09.827Z,24.40
2022-08-05T20:04:37.982Z,24.40
2022-08-05T20:07:13.376Z,24.40
2022-08-05T20:09:53.959Z,24.30
2022-08-05T20:12:23.472Z,24.30
2022-08-05T20:14:52.265Z,24.10
2022-08-05T20:17:23.453Z,24.00
2022-08-05T20:19:56.710Z,23.90
2022-08-05T20:22:26.961Z,23.80
2022-08-05T20:24:55.848Z,23.80
2022-08-05T20:27:41.849Z,23.60
2022-08-05T20:30:10.345Z,23.50
2022-08-05T20:32:37.552Z,23.40
2022-08-05T20:35:11.993Z,23.30
2022-08-05T20:38:06.405Z,23.20
2022-08-05T20:40:27.093Z,23.10
2022-08-05T20:43:00.070Z,23.00
2022-08-05T20:45:56.190Z,22.90
2022-08-05T20:48:16.441Z,22.90
2022-08-05T20:50:45.436Z,22.90
2022-08-05T20:53:16.135Z,22.80
2022-08-05T20:56:08.410Z,22.80
2022-08-05T20:58:35.850Z,22.70
2022-08-05T21:01:04.437Z,22.70
2022-08-05T21:03:34.586Z,22.60
2022-08-05T21:06:02.243Z,22.50
2022-08-05T21:08:42.396Z,22.50
2022-08-05T21:11:12.829Z,22.40
2022-08-05T21:13:48.020Z,22.40
2022-08-05T21:16:29.542Z,22.30
2022-08-05T21:19:00.365Z,22.30
2022-08-05T21:21:44.506Z,22.40
2022-08-05T21:24:16.643Z,22.40
2022-08-05T21:26:53.669Z,22.30
2022-08-05T21:29:31.352Z,22.20
2022-08-05T21:31:59.773Z,22.10
2022-08-05T21:34:28.209Z,21.90
2022-08-05T21:36:55.419Z,21.90
2022-08-05T21:39:26.978Z,21.90
2022-08-05T21:42:01.039Z,21.80
2022-08-05T21:44:29.198Z,21.70
2022-08-05T21:46:58.179Z,21.70
2022-08-05T21:49:48.215Z,21.70
2022-08-05T21:52:21.871Z,21.60
2022-08-05T21:54:55.835Z,21.60
2022-08-05T21:57:31.515Z,21.60
2022-08-05T22:00:06.159Z,21.60
2022-08-05T22:02:34.082Z,21.70
2022-08-05T22:05:01.059Z,21.80
2022-08-05T22:07:39.315Z,21.80
2022-08-05T22:10:17.471Z,21.60
2022-08-05T22:12:53.767Z,21.50
2022-08-05T22:15:57.228Z,21.50
2022-08-05T22:18:08.628Z,21.50
2022-08-05T22:20:38.932Z,21.50
2022-08-05T22:24:01.325Z,21.40
2022-08-05T22:26:31.116Z,21.40
2022-08-05T22:28:58.161Z,21.40
2022-08-05T22:31:30.103Z,21.30
2022-08-05T22:34:01.134Z,21.30
2022-08-05T22:36:29.048Z,21.40
2022-08-05T22:38:56.262Z,21.50
2022-08-05T22:41:26.177Z,21.70
2022-08-05T22:44:11.964Z,21.70
2022-08-05T22:46:40.825Z,21.70
2022-08-05T22:49:23.123Z,21.60
2022-08-05T22:52:06.673Z,21.50
2022-08-05T22:54:38.799Z,21.40
2022-08-05T22:57:06.656Z,21.30
2022-08-05T22:59:46.311Z,21.30
2022-08-05T23:02:18.208Z,21.20
2022-08-05T23:04:52.070Z,21.10
2022-08-05T23:07:21.993Z,21.00
2022-08-05T23:09:57.037Z,21.00
2022-08-05T23:12:28.978Z,20.90
2022-08-05T23:14:59.209Z,20.90
2022-08-05T23:17:35.106Z,20.90
2022-08-05T23:20:16.423Z,20.90
2022-08-05T23:22:47.294Z,20.80
2022-08-05T23:25:17.360Z,20.80
2022-08-05T23:28:03.903Z,20.80
2022-08-05T23:30:40.393Z,20.90
2022-08-05T23:33:16.197Z,20.90
2022-08-05T23:35:49.203Z,20.80
2022-08-05T23:38:16.979Z,20.70
2022-08-05T23:40:49.837Z,20.70
2022-08-05T23:43:25.010Z,20.60
2022-08-05T23:46:05.082Z,20.60
2022-08-05T23:48:59.965Z,20.60
2022-08-05T23:51:53.626Z,20.60
2022-08-05T23:54:33.722Z,20.60
2022-08-05T23:57:04.959Z,20.60
2022-08-05T23:59:37.669Z,20.50
